THY146 LTAI-LLBG
Flight info
| Callsign | THY146 |
|---|---|
| Flight time | 1h 7m |
| Altitude | 27000 |
| Route | TOMBI A16 DASNI/N0426F370 M855 MAROS L609 ZUKKO |
| Aircraft | A320/M-SDE3FGHIRWY/LB1 |
Departure
| Time | 2026-05-07 19:57 |
|---|---|
| Airport | Antalya International Airport (LTAI) |
Arrival
| Time | 2026-05-07 21:04 |
|---|---|
| Airport | Ben Gurion International Airport (LLBG) |
| Time | Latitude | Longitude | Altitude | Speed | Heading |
|---|---|---|---|---|---|
| 2026-05-07 19:34 | 36.89322 | 30.80039 | 180 ft | 0 kts | 7° |
| 2026-05-07 19:49 | 36.89317 | 30.80039 | 180 ft | 2 kts | 8° |
| 2026-05-07 19:49 | 36.89300 | 30.80035 | 180 ft | 2 kts | 11° |
| 2026-05-07 19:49 | 36.89284 | 30.80031 | 180 ft | 2 kts | 15° |
| 2026-05-07 19:50 | 36.89268 | 30.80025 | 180 ft | 2 kts | 32° |
| 2026-05-07 19:50 | 36.89257 | 30.80010 | 180 ft | 2 kts | 89° |
| 2026-05-07 19:50 | 36.89258 | 30.79999 | 180 ft | 1 kts | 98° |
| 2026-05-07 19:50 | 36.89258 | 30.79998 | 180 ft | 0 kts | 98° |
| 2026-05-07 19:52 | 36.89257 | 30.80000 | 180 ft | 1 kts | 97° |
| 2026-05-07 19:52 | 36.89255 | 30.80034 | 180 ft | 7 kts | 96° |
| 2026-05-07 19:52 | 36.89248 | 30.80113 | 179 ft | 11 kts | 95° |
| 2026-05-07 19:53 | 36.89239 | 30.80224 | 178 ft | 14 kts | 97° |
| 2026-05-07 19:53 | 36.89227 | 30.80348 | 177 ft | 11 kts | 97° |
| 2026-05-07 19:53 | 36.89217 | 30.80454 | 176 ft | 13 kts | 96° |
| 2026-05-07 19:53 | 36.89208 | 30.80560 | 175 ft | 11 kts | 97° |
| 2026-05-07 19:54 | 36.89168 | 30.80631 | 175 ft | 12 kts | 177° |
| 2026-05-07 19:54 | 36.89073 | 30.80620 | 174 ft | 15 kts | 186° |
| 2026-05-07 19:54 | 36.88957 | 30.80603 | 174 ft | 18 kts | 187° |
| 2026-05-07 19:54 | 36.88820 | 30.80584 | 173 ft | 21 kts | 187° |
| 2026-05-07 19:55 | 36.88663 | 30.80562 | 173 ft | 24 kts | 186° |
| 2026-05-07 19:55 | 36.88493 | 30.80538 | 172 ft | 25 kts | 186° |
| 2026-05-07 19:55 | 36.88333 | 30.80517 | 171 ft | 24 kts | 186° |
| 2026-05-07 19:55 | 36.88197 | 30.80497 | 170 ft | 17 kts | 186° |
| 2026-05-07 19:56 | 36.88114 | 30.80564 | 168 ft | 17 kts | 103° |
| 2026-05-07 19:56 | 36.88124 | 30.80701 | 167 ft | 16 kts | 56° |
| 2026-05-07 19:56 | 36.88190 | 30.80735 | 169 ft | 0 kts | 7° |
| 2026-05-07 19:56 | 36.88279 | 30.80748 | 169 ft | 42 kts | 6° |
| 2026-05-07 19:57 | 36.88818 | 30.80818 | 174 ft | 110 kts | 6° |
| 2026-05-07 19:57 | 36.89761 | 30.80947 | 181 ft | 160 kts | 5° |
| 2026-05-07 19:57 | 36.90908 | 30.81136 | 673 ft | 168 kts | 7° |
| 2026-05-07 19:57 | 36.92038 | 30.81462 | 1442 ft | 167 kts | 22° |
| 2026-05-07 19:58 | 36.93123 | 30.82009 | 2099 ft | 168 kts | 21° |
| 2026-05-07 19:58 | 36.94240 | 30.82569 | 2524 ft | 183 kts | 21° |
| 2026-05-07 19:58 | 36.95484 | 30.83194 | 2809 ft | 208 kts | 21° |
| 2026-05-07 19:58 | 36.96869 | 30.83891 | 3421 ft | 218 kts | 21° |
| 2026-05-07 19:59 | 36.98141 | 30.84932 | 4200 ft | 224 kts | 51° |
| 2026-05-07 19:59 | 36.98756 | 30.86757 | 4793 ft | 243 kts | 85° |
| 2026-05-07 19:59 | 36.98681 | 30.88981 | 5278 ft | 266 kts | 94° |
| 2026-05-07 19:59 | 36.98480 | 30.91318 | 6109 ft | 274 kts | 95° |
| 2026-05-07 20:00 | 36.98248 | 30.93701 | 7012 ft | 278 kts | 95° |
| 2026-05-07 20:00 | 36.98016 | 30.96119 | 7905 ft | 281 kts | 94° |
| 2026-05-07 20:00 | 36.97621 | 30.98531 | 8763 ft | 289 kts | 110° |
| 2026-05-07 20:00 | 36.96488 | 31.00632 | 9605 ft | 297 kts | 136° |
| 2026-05-07 20:01 | 36.94703 | 31.01953 | 10403 ft | 304 kts | 163° |
| 2026-05-07 20:01 | 36.92546 | 31.02222 | 10737 ft | 325 kts | 188° |
| 2026-05-07 20:01 | 36.90252 | 31.01727 | 11137 ft | 340 kts | 191° |
| 2026-05-07 20:01 | 36.87899 | 31.01168 | 11821 ft | 346 kts | 192° |
| 2026-05-07 20:02 | 36.85514 | 31.00597 | 12550 ft | 351 kts | 192° |
| 2026-05-07 20:02 | 36.83099 | 31.00026 | 13278 ft | 356 kts | 192° |
| 2026-05-07 20:02 | 36.80683 | 30.99467 | 13980 ft | 360 kts | 192° |
| 2026-05-07 20:02 | 36.78202 | 30.98904 | 14605 ft | 364 kts | 192° |
| 2026-05-07 20:03 | 36.75693 | 30.98342 | 15254 ft | 368 kts | 192° |
| 2026-05-07 20:03 | 36.73164 | 30.97781 | 15889 ft | 371 kts | 192° |
| 2026-05-07 20:03 | 36.70605 | 30.97213 | 16528 ft | 375 kts | 193° |
| 2026-05-07 20:03 | 36.68025 | 30.96639 | 17159 ft | 379 kts | 193° |
| 2026-05-07 20:04 | 36.65414 | 30.96059 | 17794 ft | 382 kts | 193° |
| 2026-05-07 20:04 | 36.62778 | 30.95470 | 18420 ft | 386 kts | 193° |
| 2026-05-07 20:04 | 36.60120 | 30.94874 | 18973 ft | 390 kts | 193° |
| 2026-05-07 20:04 | 36.57439 | 30.94272 | 19552 ft | 394 kts | 193° |
| 2026-05-07 20:05 | 36.54731 | 30.93666 | 20140 ft | 397 kts | 193° |
| 2026-05-07 20:05 | 36.52004 | 30.93059 | 20731 ft | 400 kts | 193° |
| 2026-05-07 20:05 | 36.49253 | 30.92447 | 21313 ft | 403 kts | 193° |
| 2026-05-07 20:05 | 36.46480 | 30.91831 | 21877 ft | 406 kts | 193° |
| 2026-05-07 20:06 | 36.43723 | 30.91216 | 22458 ft | 409 kts | 193° |
| 2026-05-07 20:06 | 36.40910 | 30.90587 | 23014 ft | 412 kts | 193° |
| 2026-05-07 20:06 | 36.38080 | 30.89956 | 23592 ft | 415 kts | 193° |
| 2026-05-07 20:06 | 36.35229 | 30.89319 | 24078 ft | 418 kts | 193° |
| 2026-05-07 20:07 | 36.32357 | 30.88681 | 24553 ft | 420 kts | 193° |
| 2026-05-07 20:07 | 36.29468 | 30.88043 | 25012 ft | 423 kts | 193° |
| 2026-05-07 20:07 | 36.26564 | 30.87405 | 25472 ft | 425 kts | 193° |
| 2026-05-07 20:07 | 36.23644 | 30.86766 | 25924 ft | 427 kts | 192° |
| 2026-05-07 20:08 | 36.20709 | 30.86126 | 26354 ft | 430 kts | 192° |
| 2026-05-07 20:08 | 36.17758 | 30.85475 | 26796 ft | 432 kts | 193° |
| 2026-05-07 20:08 | 36.14791 | 30.84816 | 27066 ft | 433 kts | 193° |
| 2026-05-07 20:08 | 36.11852 | 30.84166 | 27125 ft | 421 kts | 193° |
| 2026-05-07 20:09 | 36.09006 | 30.83546 | 27130 ft | 411 kts | 193° |
| 2026-05-07 20:09 | 36.06201 | 30.82935 | 27129 ft | 408 kts | 193° |
| 2026-05-07 20:09 | 36.03415 | 30.82547 | 27128 ft | 410 kts | 184° |
| 2026-05-07 20:10 | 35.97695 | 30.82835 | 27129 ft | 411 kts | 179° |
| 2026-05-07 20:10 | 35.94842 | 30.83010 | 27133 ft | 411 kts | 179° |
| 2026-05-07 20:10 | 35.91987 | 30.83181 | 27132 ft | 411 kts | 179° |
| 2026-05-07 20:10 | 35.89134 | 30.83348 | 27133 ft | 410 kts | 179° |
| 2026-05-07 20:11 | 35.86280 | 30.83514 | 27134 ft | 410 kts | 179° |
| 2026-05-07 20:11 | 35.83422 | 30.83684 | 27130 ft | 411 kts | 179° |
| 2026-05-07 20:11 | 35.80565 | 30.83858 | 27143 ft | 411 kts | 179° |
| 2026-05-07 20:11 | 35.77710 | 30.84032 | 27149 ft | 411 kts | 179° |
| 2026-05-07 20:12 | 35.74890 | 30.84204 | 27150 ft | 411 kts | 179° |
| 2026-05-07 20:12 | 35.72031 | 30.84379 | 27158 ft | 411 kts | 179° |
| 2026-05-07 20:12 | 35.69173 | 30.84550 | 27157 ft | 411 kts | 179° |
| 2026-05-07 20:12 | 35.66318 | 30.84716 | 27157 ft | 411 kts | 180° |
| 2026-05-07 20:13 | 35.63462 | 30.84884 | 27157 ft | 411 kts | 179° |
| 2026-05-07 20:13 | 35.60603 | 30.85053 | 27156 ft | 411 kts | 180° |
| 2026-05-07 20:13 | 35.57749 | 30.85183 | 27153 ft | 411 kts | 180° |
| 2026-05-07 20:13 | 35.54895 | 30.85280 | 27170 ft | 411 kts | 181° |
| 2026-05-07 20:14 | 35.52038 | 30.85360 | 27167 ft | 410 kts | 181° |
| 2026-05-07 20:14 | 35.49180 | 30.85438 | 27169 ft | 410 kts | 181° |
| 2026-05-07 20:14 | 35.46321 | 30.85520 | 27169 ft | 410 kts | 181° |
| 2026-05-07 20:14 | 35.43468 | 30.85611 | 27167 ft | 410 kts | 181° |
| 2026-05-07 20:15 | 35.40614 | 30.85705 | 27169 ft | 410 kts | 181° |
| 2026-05-07 20:15 | 35.37756 | 30.85799 | 27169 ft | 410 kts | 181° |
| 2026-05-07 20:15 | 35.35866 | 30.85861 | 27167 ft | 410 kts | 181° |
| 2026-05-07 20:15 | 35.33013 | 30.85957 | 27172 ft | 410 kts | 181° |
| 2026-05-07 20:16 | 35.29231 | 30.86086 | 27172 ft | 410 kts | 181° |
| 2026-05-07 20:16 | 35.26378 | 30.86183 | 27171 ft | 410 kts | 181° |
| 2026-05-07 20:16 | 35.23523 | 30.86283 | 27175 ft | 410 kts | 181° |
| 2026-05-07 20:16 | 35.20674 | 30.86381 | 27173 ft | 410 kts | 181° |
| 2026-05-07 20:17 | 35.18745 | 30.86446 | 27173 ft | 410 kts | 181° |
| 2026-05-07 20:17 | 35.15895 | 30.86543 | 27173 ft | 410 kts | 181° |
| 2026-05-07 20:17 | 35.13080 | 30.86637 | 27173 ft | 410 kts | 181° |
| 2026-05-07 20:17 | 35.10223 | 30.86732 | 27175 ft | 410 kts | 181° |
| 2026-05-07 20:18 | 35.07372 | 30.86826 | 27175 ft | 410 kts | 181° |
| 2026-05-07 20:18 | 35.04520 | 30.86919 | 27174 ft | 410 kts | 181° |
| 2026-05-07 20:18 | 35.01671 | 30.87011 | 27173 ft | 410 kts | 181° |
| 2026-05-07 20:18 | 34.98820 | 30.87104 | 27173 ft | 410 kts | 181° |
| 2026-05-07 20:19 | 34.95969 | 30.87201 | 27175 ft | 410 kts | 181° |
| 2026-05-07 20:19 | 34.93119 | 30.87299 | 27175 ft | 410 kts | 181° |
| 2026-05-07 20:19 | 34.90266 | 30.87392 | 27171 ft | 410 kts | 181° |
| 2026-05-07 20:19 | 34.87416 | 30.87484 | 27173 ft | 410 kts | 181° |
| 2026-05-07 20:20 | 34.84563 | 30.87579 | 27171 ft | 410 kts | 181° |
| 2026-05-07 20:20 | 34.81714 | 30.87675 | 27171 ft | 410 kts | 181° |
| 2026-05-07 20:20 | 34.78855 | 30.87771 | 27174 ft | 410 kts | 181° |
| 2026-05-07 20:20 | 34.76007 | 30.87864 | 27173 ft | 410 kts | 181° |
| 2026-05-07 20:21 | 34.73154 | 30.87957 | 27174 ft | 410 kts | 181° |
| 2026-05-07 20:21 | 34.70301 | 30.88051 | 27175 ft | 410 kts | 181° |
| 2026-05-07 20:21 | 34.67447 | 30.88177 | 27169 ft | 411 kts | 176° |
| 2026-05-07 20:21 | 34.64644 | 30.88930 | 27123 ft | 415 kts | 163° |
| 2026-05-07 20:22 | 34.62016 | 30.90269 | 27133 ft | 416 kts | 153° |
| 2026-05-07 20:22 | 34.59610 | 30.92229 | 27129 ft | 418 kts | 140° |
| 2026-05-07 20:22 | 34.57604 | 30.94771 | 27150 ft | 418 kts | 127° |
| 2026-05-07 20:22 | 34.55845 | 30.97582 | 27151 ft | 418 kts | 127° |
| 2026-05-07 20:23 | 34.54095 | 31.00398 | 27159 ft | 419 kts | 127° |
| 2026-05-07 20:23 | 34.52342 | 31.03227 | 27160 ft | 419 kts | 127° |
| 2026-05-07 20:23 | 34.50585 | 31.06050 | 27161 ft | 419 kts | 127° |
| 2026-05-07 20:23 | 34.48825 | 31.08868 | 27167 ft | 419 kts | 127° |
| 2026-05-07 20:24 | 34.47060 | 31.11686 | 27171 ft | 420 kts | 127° |
| 2026-05-07 20:24 | 34.45294 | 31.14502 | 27171 ft | 420 kts | 127° |
| 2026-05-07 20:24 | 34.43526 | 31.17316 | 27174 ft | 420 kts | 127° |
| 2026-05-07 20:24 | 34.41759 | 31.20132 | 27181 ft | 420 kts | 127° |
| 2026-05-07 20:25 | 34.39991 | 31.22944 | 27180 ft | 420 kts | 127° |
| 2026-05-07 20:25 | 34.38222 | 31.25753 | 27180 ft | 420 kts | 127° |
| 2026-05-07 20:25 | 34.36450 | 31.28561 | 27180 ft | 420 kts | 127° |
| 2026-05-07 20:25 | 34.34676 | 31.31370 | 27181 ft | 420 kts | 127° |
| 2026-05-07 20:26 | 34.32903 | 31.34175 | 27182 ft | 420 kts | 127° |
| 2026-05-07 20:26 | 34.31130 | 31.36983 | 27180 ft | 420 kts | 127° |
| 2026-05-07 20:26 | 34.29359 | 31.39788 | 27181 ft | 420 kts | 127° |
| 2026-05-07 20:26 | 34.27606 | 31.42560 | 27179 ft | 420 kts | 127° |
| 2026-05-07 20:27 | 34.25832 | 31.45363 | 27177 ft | 420 kts | 127° |
| 2026-05-07 20:27 | 34.24053 | 31.48167 | 27175 ft | 420 kts | 127° |
| 2026-05-07 20:27 | 34.22275 | 31.50966 | 27174 ft | 420 kts | 127° |
| 2026-05-07 20:27 | 34.20498 | 31.53763 | 27175 ft | 420 kts | 127° |
| 2026-05-07 20:28 | 34.18719 | 31.56558 | 27176 ft | 420 kts | 127° |
| 2026-05-07 20:28 | 34.16939 | 31.59353 | 27175 ft | 420 kts | 127° |
| 2026-05-07 20:28 | 34.15164 | 31.62145 | 27176 ft | 420 kts | 127° |
| 2026-05-07 20:28 | 34.13388 | 31.64940 | 27175 ft | 420 kts | 127° |
| 2026-05-07 20:29 | 34.11612 | 31.67732 | 27176 ft | 420 kts | 127° |
| 2026-05-07 20:29 | 34.09833 | 31.70523 | 27176 ft | 420 kts | 127° |
| 2026-05-07 20:29 | 34.08077 | 31.73275 | 27171 ft | 420 kts | 127° |
| 2026-05-07 20:29 | 34.06296 | 31.76064 | 27171 ft | 420 kts | 127° |
| 2026-05-07 20:30 | 34.04511 | 31.78856 | 27171 ft | 420 kts | 127° |
| 2026-05-07 20:30 | 34.02730 | 31.81639 | 27170 ft | 420 kts | 127° |
| 2026-05-07 20:30 | 34.00945 | 31.84429 | 27172 ft | 420 kts | 126° |
| 2026-05-07 20:30 | 33.99162 | 31.87215 | 27170 ft | 420 kts | 126° |
| 2026-05-07 20:31 | 33.97376 | 31.90000 | 27168 ft | 420 kts | 127° |
| 2026-05-07 20:31 | 33.95590 | 31.92781 | 27167 ft | 420 kts | 127° |
| 2026-05-07 20:31 | 33.93805 | 31.95561 | 27170 ft | 420 kts | 126° |
| 2026-05-07 20:31 | 33.92019 | 31.98345 | 27167 ft | 420 kts | 126° |
| 2026-05-07 20:32 | 33.90231 | 32.01128 | 27167 ft | 420 kts | 126° |
| 2026-05-07 20:32 | 33.88444 | 32.03907 | 27166 ft | 420 kts | 127° |
| 2026-05-07 20:32 | 33.86651 | 32.06690 | 27166 ft | 420 kts | 127° |
| 2026-05-07 20:32 | 33.84864 | 32.09423 | 27167 ft | 420 kts | 127° |
| 2026-05-07 20:33 | 33.83032 | 32.12171 | 27165 ft | 421 kts | 128° |
| 2026-05-07 20:33 | 33.81191 | 32.14903 | 27166 ft | 421 kts | 128° |
| 2026-05-07 20:33 | 33.79338 | 32.17642 | 27162 ft | 421 kts | 128° |
| 2026-05-07 20:33 | 33.77493 | 32.20371 | 27162 ft | 421 kts | 128° |
| 2026-05-07 20:34 | 33.75647 | 32.23104 | 27163 ft | 421 kts | 128° |
| 2026-05-07 20:34 | 33.73801 | 32.25839 | 27161 ft | 421 kts | 128° |
| 2026-05-07 20:34 | 33.71954 | 32.28578 | 27160 ft | 421 kts | 128° |
| 2026-05-07 20:34 | 33.70110 | 32.31315 | 27160 ft | 422 kts | 128° |
| 2026-05-07 20:35 | 33.68267 | 32.34056 | 27157 ft | 422 kts | 128° |
| 2026-05-07 20:35 | 33.66423 | 32.36798 | 27156 ft | 422 kts | 128° |
| 2026-05-07 20:35 | 33.64580 | 32.39538 | 27156 ft | 422 kts | 128° |
| 2026-05-07 20:35 | 33.62732 | 32.42281 | 27157 ft | 422 kts | 128° |
| 2026-05-07 20:36 | 33.60884 | 32.45015 | 27159 ft | 422 kts | 128° |
| 2026-05-07 20:36 | 33.59056 | 32.47716 | 27160 ft | 422 kts | 128° |
| 2026-05-07 20:36 | 33.57207 | 32.50451 | 27156 ft | 422 kts | 128° |
| 2026-05-07 20:36 | 33.55356 | 32.53190 | 27155 ft | 422 kts | 128° |
| 2026-05-07 20:37 | 33.53505 | 32.55926 | 27156 ft | 422 kts | 128° |
| 2026-05-07 20:37 | 33.51647 | 32.58667 | 27154 ft | 423 kts | 128° |
| 2026-05-07 20:37 | 33.49792 | 32.61399 | 27154 ft | 423 kts | 128° |
| 2026-05-07 20:37 | 33.47935 | 32.64125 | 27153 ft | 423 kts | 128° |
| 2026-05-07 20:38 | 33.46071 | 32.66856 | 27155 ft | 423 kts | 128° |
| 2026-05-07 20:38 | 33.44212 | 32.69584 | 27154 ft | 423 kts | 128° |
| 2026-05-07 20:38 | 33.42350 | 32.72314 | 27154 ft | 423 kts | 128° |
| 2026-05-07 20:38 | 33.40491 | 32.75041 | 27155 ft | 423 kts | 128° |
| 2026-05-07 20:39 | 33.38631 | 32.77770 | 27153 ft | 423 kts | 128° |
| 2026-05-07 20:39 | 33.36772 | 32.80498 | 27151 ft | 423 kts | 128° |
| 2026-05-07 20:39 | 33.34913 | 32.83228 | 27153 ft | 423 kts | 128° |
| 2026-05-07 20:39 | 33.33079 | 32.85924 | 27154 ft | 423 kts | 128° |
| 2026-05-07 20:40 | 33.31217 | 32.88653 | 27153 ft | 423 kts | 128° |
| 2026-05-07 20:40 | 33.29351 | 32.91379 | 27155 ft | 423 kts | 128° |
| 2026-05-07 20:40 | 33.27482 | 32.94106 | 27150 ft | 423 kts | 128° |
| 2026-05-07 20:40 | 33.25616 | 32.96824 | 27151 ft | 423 kts | 128° |
| 2026-05-07 20:41 | 33.23745 | 32.99543 | 27153 ft | 423 kts | 128° |
| 2026-05-07 20:41 | 33.21874 | 33.02261 | 27151 ft | 423 kts | 128° |
| 2026-05-07 20:41 | 33.20001 | 33.04986 | 27151 ft | 424 kts | 128° |
| 2026-05-07 20:41 | 33.18152 | 33.07727 | 27151 ft | 423 kts | 127° |
| 2026-05-07 20:42 | 33.16341 | 33.10500 | 27151 ft | 423 kts | 126° |
| 2026-05-07 20:42 | 33.14582 | 33.13242 | 27006 ft | 420 kts | 126° |
| 2026-05-07 20:42 | 33.12827 | 33.15992 | 26748 ft | 413 kts | 126° |
| 2026-05-07 20:42 | 33.11095 | 33.18699 | 26512 ft | 408 kts | 126° |
| 2026-05-07 20:43 | 33.09376 | 33.21373 | 26251 ft | 405 kts | 126° |
| 2026-05-07 20:43 | 33.07658 | 33.24028 | 26008 ft | 403 kts | 126° |
| 2026-05-07 20:43 | 33.05947 | 33.26660 | 25767 ft | 401 kts | 126° |
| 2026-05-07 20:43 | 33.04241 | 33.29276 | 25513 ft | 397 kts | 127° |
| 2026-05-07 20:44 | 33.02546 | 33.31872 | 25090 ft | 396 kts | 127° |
| 2026-05-07 20:44 | 33.00853 | 33.34472 | 24631 ft | 396 kts | 127° |
| 2026-05-07 20:44 | 32.99159 | 33.37071 | 24170 ft | 397 kts | 127° |
| 2026-05-07 20:44 | 32.97463 | 33.39663 | 23700 ft | 397 kts | 127° |
| 2026-05-07 20:45 | 32.95789 | 33.42226 | 23190 ft | 397 kts | 127° |
| 2026-05-07 20:45 | 32.94097 | 33.44812 | 22723 ft | 395 kts | 127° |
| 2026-05-07 20:45 | 32.92416 | 33.47382 | 22251 ft | 393 kts | 127° |
| 2026-05-07 20:45 | 32.90741 | 33.49942 | 21786 ft | 391 kts | 127° |
| 2026-05-07 20:46 | 32.89074 | 33.52486 | 21321 ft | 389 kts | 127° |
| 2026-05-07 20:46 | 32.87416 | 33.55016 | 20857 ft | 387 kts | 127° |
| 2026-05-07 20:46 | 32.85764 | 33.57537 | 20388 ft | 386 kts | 127° |
| 2026-05-07 20:46 | 32.84119 | 33.60046 | 19929 ft | 384 kts | 127° |
| 2026-05-07 20:47 | 32.82463 | 33.62527 | 19488 ft | 382 kts | 131° |
| 2026-05-07 20:47 | 32.80637 | 33.64807 | 19060 ft | 380 kts | 134° |
| 2026-05-07 20:47 | 32.78808 | 33.67061 | 18627 ft | 378 kts | 134° |
| 2026-05-07 20:47 | 32.76986 | 33.69308 | 18091 ft | 378 kts | 134° |
| 2026-05-07 20:48 | 32.75165 | 33.71552 | 17643 ft | 375 kts | 134° |
| 2026-05-07 20:48 | 32.73364 | 33.73767 | 17220 ft | 371 kts | 134° |
| 2026-05-07 20:48 | 32.71575 | 33.75968 | 16789 ft | 368 kts | 134° |
| 2026-05-07 20:48 | 32.69806 | 33.78147 | 16360 ft | 365 kts | 134° |
| 2026-05-07 20:49 | 32.68049 | 33.80313 | 15942 ft | 362 kts | 134° |
| 2026-05-07 20:49 | 32.66306 | 33.82458 | 15521 ft | 360 kts | 134° |
| 2026-05-07 20:49 | 32.64575 | 33.84583 | 15108 ft | 358 kts | 134° |
| 2026-05-07 20:49 | 32.62875 | 33.86672 | 14691 ft | 355 kts | 135° |
| 2026-05-07 20:50 | 32.61161 | 33.88780 | 14281 ft | 353 kts | 135° |
| 2026-05-07 20:50 | 32.59454 | 33.90877 | 13862 ft | 352 kts | 135° |
| 2026-05-07 20:50 | 32.57759 | 33.92955 | 13420 ft | 349 kts | 135° |
| 2026-05-07 20:50 | 32.56076 | 33.95018 | 13009 ft | 346 kts | 135° |
| 2026-05-07 20:51 | 32.54428 | 33.97059 | 12767 ft | 338 kts | 134° |
| 2026-05-07 20:51 | 32.52827 | 33.99064 | 12537 ft | 331 kts | 134° |
| 2026-05-07 20:51 | 32.51263 | 34.01025 | 12301 ft | 324 kts | 134° |
| 2026-05-07 20:51 | 32.49724 | 34.02955 | 12072 ft | 321 kts | 134° |
| 2026-05-07 20:52 | 32.48195 | 34.04869 | 11837 ft | 319 kts | 134° |
| 2026-05-07 20:52 | 32.46691 | 34.06745 | 11621 ft | 317 kts | 135° |
| 2026-05-07 20:52 | 32.45173 | 34.08636 | 11391 ft | 316 kts | 135° |
| 2026-05-07 20:52 | 32.43659 | 34.10514 | 11165 ft | 314 kts | 135° |
| 2026-05-07 20:53 | 32.42273 | 34.12507 | 10930 ft | 314 kts | 124° |
| 2026-05-07 20:53 | 32.41057 | 34.14645 | 10679 ft | 312 kts | 125° |
| 2026-05-07 20:53 | 32.39848 | 34.16775 | 10435 ft | 311 kts | 125° |
| 2026-05-07 20:53 | 32.38642 | 34.18896 | 10189 ft | 309 kts | 125° |
| 2026-05-07 20:54 | 32.37442 | 34.20997 | 9937 ft | 307 kts | 125° |
| 2026-05-07 20:54 | 32.36251 | 34.23073 | 9685 ft | 304 kts | 125° |
| 2026-05-07 20:54 | 32.35065 | 34.25141 | 9436 ft | 302 kts | 125° |
| 2026-05-07 20:54 | 32.33886 | 34.27196 | 9200 ft | 301 kts | 125° |
| 2026-05-07 20:55 | 32.32713 | 34.29240 | 8960 ft | 299 kts | 125° |
| 2026-05-07 20:55 | 32.31547 | 34.31268 | 8723 ft | 298 kts | 125° |
| 2026-05-07 20:55 | 32.30386 | 34.33282 | 8475 ft | 296 kts | 124° |
| 2026-05-07 20:55 | 32.29229 | 34.35286 | 8254 ft | 294 kts | 124° |
| 2026-05-07 20:56 | 32.28096 | 34.37249 | 8022 ft | 292 kts | 124° |
| 2026-05-07 20:56 | 32.26955 | 34.39229 | 7788 ft | 291 kts | 124° |
| 2026-05-07 20:56 | 32.25817 | 34.41198 | 7562 ft | 289 kts | 124° |
| 2026-05-07 20:56 | 32.24681 | 34.43157 | 7332 ft | 288 kts | 124° |
| 2026-05-07 20:57 | 32.23555 | 34.45103 | 7098 ft | 286 kts | 124° |
| 2026-05-07 20:57 | 32.22436 | 34.47041 | 6833 ft | 285 kts | 124° |
| 2026-05-07 20:57 | 32.21318 | 34.48977 | 6509 ft | 284 kts | 124° |
| 2026-05-07 20:57 | 32.20216 | 34.50879 | 6190 ft | 275 kts | 124° |
| 2026-05-07 20:58 | 32.19146 | 34.52719 | 5898 ft | 271 kts | 123° |
| 2026-05-07 20:58 | 32.18051 | 34.54602 | 5599 ft | 308 kts | 123° |
| 2026-05-07 20:58 | 32.16775 | 34.56802 | 5227 ft | 326 kts | 123° |
| 2026-05-07 20:58 | 32.15572 | 34.58964 | 4897 ft | 304 kts | 121° |
| 2026-05-07 20:59 | 32.14523 | 34.61043 | 4566 ft | 286 kts | 116° |
| 2026-05-07 20:59 | 32.13627 | 34.63060 | 4271 ft | 271 kts | 117° |
| 2026-05-07 20:59 | 32.12699 | 34.64930 | 3988 ft | 257 kts | 119° |
| 2026-05-07 20:59 | 32.11785 | 34.66684 | 3723 ft | 244 kts | 119° |
| 2026-05-07 21:00 | 32.10922 | 34.68344 | 3551 ft | 228 kts | 118° |
| 2026-05-07 21:00 | 32.10123 | 34.69887 | 3354 ft | 214 kts | 117° |
| 2026-05-07 21:00 | 32.09383 | 34.71317 | 3111 ft | 201 kts | 117° |
| 2026-05-07 21:00 | 32.08690 | 34.72655 | 2857 ft | 177 kts | 117° |
| 2026-05-07 21:01 | 32.08087 | 34.73817 | 2624 ft | 158 kts | 116° |
| 2026-05-07 21:01 | 32.07532 | 34.74892 | 2424 ft | 150 kts | 115° |
| 2026-05-07 21:01 | 32.06995 | 34.75930 | 2225 ft | 148 kts | 116° |
| 2026-05-07 21:01 | 32.06463 | 34.76959 | 2031 ft | 147 kts | 116° |
| 2026-05-07 21:02 | 32.05932 | 34.77985 | 1838 ft | 146 kts | 116° |
| 2026-05-07 21:02 | 32.05402 | 34.79008 | 1650 ft | 146 kts | 116° |
| 2026-05-07 21:02 | 32.04871 | 34.80031 | 1439 ft | 146 kts | 116° |
| 2026-05-07 21:02 | 32.04343 | 34.81049 | 1250 ft | 146 kts | 116° |
| 2026-05-07 21:03 | 32.03823 | 34.82052 | 1053 ft | 145 kts | 118° |
| 2026-05-07 21:03 | 32.03296 | 34.83066 | 858 ft | 144 kts | 118° |
| 2026-05-07 21:03 | 32.02779 | 34.84061 | 673 ft | 142 kts | 118° |
| 2026-05-07 21:03 | 32.02267 | 34.85050 | 474 ft | 140 kts | 119° |
| 2026-05-07 21:04 | 32.01765 | 34.86026 | 264 ft | 138 kts | 119° |
| 2026-05-07 21:04 | 32.01271 | 34.86988 | 123 ft | 136 kts | 120° |
| 2026-05-07 21:04 | 32.00866 | 34.87754 | 124 ft | 71 kts | 122° |
| 2026-05-07 21:04 | 32.00717 | 34.88035 | 125 ft | 33 kts | 121° |
| 2026-05-07 21:05 | 32.00595 | 34.88277 | 132 ft | 34 kts | 121° |
| 2026-05-07 21:05 | 32.00461 | 34.88508 | 137 ft | 34 kts | 133° |
| 2026-05-07 21:05 | 32.00324 | 34.88629 | 137 ft | 18 kts | 146° |
| 2026-05-07 21:05 | 32.00295 | 34.88649 | 137 ft | 0 kts | 150° |
| 2026-05-07 21:06 | 32.00277 | 34.88661 | 137 ft | 5 kts | 150° |
| 2026-05-07 21:06 | 32.00236 | 34.88686 | 138 ft | 8 kts | 153° |
| 2026-05-07 21:06 | 32.00188 | 34.88714 | 138 ft | 1 kts | 157° |
| 2026-05-07 21:06 | 32.00163 | 34.88715 | 138 ft | 6 kts | 190° |
| 2026-05-07 21:07 | 32.00113 | 34.88689 | 138 ft | 9 kts | 207° |
| 2026-05-07 21:07 | 32.00097 | 34.88630 | 138 ft | 10 kts | 298° |
| 2026-05-07 21:07 | 32.00142 | 34.88544 | 137 ft | 14 kts | 301° |
| 2026-05-07 21:07 | 32.00202 | 34.88428 | 135 ft | 18 kts | 301° |
| 2026-05-07 21:08 | 32.00274 | 34.88294 | 133 ft | 20 kts | 302° |
| 2026-05-07 21:08 | 32.00346 | 34.88155 | 131 ft | 16 kts | 301° |
| 2026-05-07 21:08 | 32.00412 | 34.88025 | 127 ft | 20 kts | 300° |
| 2026-05-07 21:08 | 32.00456 | 34.87939 | 124 ft | 15 kts | 301° |
| 2026-05-07 21:09 | 32.00518 | 34.87823 | 124 ft | 17 kts | 302° |
| 2026-05-07 21:09 | 32.00558 | 34.87744 | 126 ft | 10 kts | 301° |
| 2026-05-07 21:09 | 32.00600 | 34.87659 | 124 ft | 14 kts | 300° |
| 2026-05-07 21:09 | 32.00629 | 34.87563 | 124 ft | 13 kts | 258° |
| 2026-05-07 21:10 | 32.00598 | 34.87487 | 122 ft | 8 kts | 243° |
| 2026-05-07 21:10 | 32.00594 | 34.87478 | 121 ft | 0 kts | 243° |